sensor_id;sensor_type;location;lat;lon;timestamp;temperature;humidity
55036;DHT22;40936;53.008;6.556;2022-11-27T00:01:11;10.90;99.90
55036;DHT22;40936;53.008;6.556;2022-11-27T00:03:37;11.10;99.90
55036;DHT22;40936;53.008;6.556;2022-11-27T00:06:03;10.70;99.90
55036;DHT22;40936;53.008;6.556;2022-11-27T00:08:29;10.70;99.90
55036;DHT22;40936;53.008;6.556;2022-11-27T00:10:55;9.60;99.90
55036;DHT22;40936;53.008;6.556;2022-11-27T00:13:20;10.70;99.90
55036;DHT22;40936;53.008;6.556;2022-11-27T00:15:46;10.70;36.70
55036;DHT22;40936;53.008;6.556;2022-11-27T00:18:12;10.70;37.50
55036;DHT22;40936;53.008;6.556;2022-11-27T00:20:37;10.30;8.90
55036;DHT22;40936;53.008;6.556;2022-11-27T00:23:03;11.00;1.00
55036;DHT22;40936;53.008;6.556;2022-11-27T00:25:29;10.90;70.30
55036;DHT22;40936;53.008;6.556;2022-11-27T00:27:55;10.70;49.40
55036;DHT22;40936;53.008;6.556;2022-11-27T00:30:21;10.60;65.80
55036;DHT22;40936;53.008;6.556;2022-11-27T00:32:46;10.60;25.90
55036;DHT22;40936;53.008;6.556;2022-11-27T00:35:12;10.50;10.80
55036;DHT22;40936;53.008;6.556;2022-11-27T00:37:38;10.50;40.00
55036;DHT22;40936;53.008;6.556;2022-11-27T00:40:04;10.50;1.00
55036;DHT22;40936;53.008;6.556;2022-11-27T00:42:30;10.50;1.00
55036;DHT22;40936;53.008;6.556;2022-11-27T00:44:56;10.50;1.00
55036;DHT22;40936;53.008;6.556;2022-11-27T00:47:21;10.50;1.00
55036;DHT22;40936;53.008;6.556;2022-11-27T00:49:47;10.50;1.00
55036;DHT22;40936;53.008;6.556;2022-11-27T00:52:12;10.50;1.00
55036;DHT22;40936;53.008;6.556;2022-11-27T00:54:38;10.40;1.00
55036;DHT22;40936;53.008;6.556;2022-11-27T00:57:04;10.40;99.90
55036;DHT22;40936;53.008;6.556;2022-11-27T00:59:30;10.40;99.90
55036;DHT22;40936;53.008;6.556;2022-11-27T01:01:55;10.30;99.90
55036;DHT22;40936;53.008;6.556;2022-11-27T01:04:21;10.70;1.00
55036;DHT22;40936;53.008;6.556;2022-11-27T01:06:47;10.70;99.90
55036;DHT22;40936;53.008;6.556;2022-11-27T01:09:13;10.40;99.90
55036;DHT22;40936;53.008;6.556;2022-11-27T01:11:39;10.00;99.90
55036;DHT22;40936;53.008;6.556;2022-11-27T01:14:09;10.30;99.90
55036;DHT22;40936;53.008;6.556;2022-11-27T01:19:03;8.70;99.90
55036;DHT22;40936;53.008;6.556;2022-11-27T01:21:31;10.70;99.90
55036;DHT22;40936;53.008;6.556;2022-11-27T01:23:58;10.60;99.90
55036;DHT22;40936;53.008;6.556;2022-11-27T01:26:24;10.20;99.90
55036;DHT22;40936;53.008;6.556;2022-11-27T01:28:52;11.30;99.90
55036;DHT22;40936;53.008;6.556;2022-11-27T01:31:20;10.20;99.90
55036;DHT22;40936;53.008;6.556;2022-11-27T01:33:47;11.10;99.90
55036;DHT22;40936;53.008;6.556;2022-11-27T01:36:14;10.20;99.90
55036;DHT22;40936;53.008;6.556;2022-11-27T01:38:40;10.20;99.90
55036;DHT22;40936;53.008;6.556;2022-11-27T01:41:28;8.70;99.90
55036;DHT22;40936;53.008;6.556;2022-11-27T01:49:38;10.10;99.90
55036;DHT22;40936;53.008;6.556;2022-11-27T01:52:25;10.00;99.90
55036;DHT22;40936;53.008;6.556;2022-11-27T01:55:08;10.30;99.90
55036;DHT22;40936;53.008;6.556;2022-11-27T01:58:04;10.00;99.90
55036;DHT22;40936;53.008;6.556;2022-11-27T02:00:32;10.00;87.40
55036;DHT22;40936;53.008;6.556;2022-11-27T02:02:58;10.00;40.30
55036;DHT22;40936;53.008;6.556;2022-11-27T02:05:25;9.90;80.10
55036;DHT22;40936;53.008;6.556;2022-11-27T02:07:54;9.90;68.70
55036;DHT22;40936;53.008;6.556;2022-11-27T02:10:24;10.20;48.40
55036;DHT22;40936;53.008;6.556;2022-11-27T02:13:02;10.20;4.20
55036;DHT22;40936;53.008;6.556;2022-11-27T02:15:48;10.00;1.00
55036;DHT22;40936;53.008;6.556;2022-11-27T02:18:24;10.00;1.00
55036;DHT22;40936;53.008;6.556;2022-11-27T02:21:04;10.00;1.00
55036;DHT22;40936;53.008;6.556;2022-11-27T02:29:10;10.00;99.90
55036;DHT22;40936;53.008;6.556;2022-11-27T02:31:40;9.40;99.90
55036;DHT22;40936;53.008;6.556;2022-11-27T02:36:40;10.00;99.90
55036;DHT22;40936;53.008;6.556;2022-11-27T02:39:10;9.30;97.10
55036;DHT22;40936;53.008;6.556;2022-11-27T02:42:04;10.00;90.20
55036;DHT22;40936;53.008;6.556;2022-11-27T02:44:32;10.00;80.70
55036;DHT22;40936;53.008;6.556;2022-11-27T02:47:00;10.00;35.80
55036;DHT22;40936;53.008;6.556;2022-11-27T02:49:27;10.30;1.00
55036;DHT22;40936;53.008;6.556;2022-11-27T02:51:56;7.60;1.00
55036;DHT22;40936;53.008;6.556;2022-11-27T02:54:25;10.10;1.00
55036;DHT22;40936;53.008;6.556;2022-11-27T02:56:52;9.50;99.90
55036;DHT22;40936;53.008;6.556;2022-11-27T02:59:20;10.70;99.90
55036;DHT22;40936;53.008;6.556;2022-11-27T03:01:57;11.10;99.90
55036;DHT22;40936;53.008;6.556;2022-11-27T03:04:28;11.30;99.90
55036;DHT22;40936;53.008;6.556;2022-11-27T03:07:02;10.20;99.90
55036;DHT22;40936;53.008;6.556;2022-11-27T03:09:39;10.20;99.90
55036;DHT22;40936;53.008;6.556;2022-11-27T03:12:08;10.20;99.90
55036;DHT22;40936;53.008;6.556;2022-11-27T03:14:36;10.60;99.90
55036;DHT22;40936;53.008;6.556;2022-11-27T03:20:02;10.20;99.90
55036;DHT22;40936;53.008;6.556;2022-11-27T03:22:32;10.30;58.50
55036;DHT22;40936;53.008;6.556;2022-11-27T03:24:58;10.00;1.00
55036;DHT22;40936;53.008;6.556;2022-11-27T03:27:32;10.30;1.00
55036;DHT22;40936;53.008;6.556;2022-11-27T03:30:03;11.10;1.00
55036;DHT22;40936;53.008;6.556;2022-11-27T03:32:29;10.20;1.00
55036;DHT22;40936;53.008;6.556;2022-11-27T03:34:55;10.40;1.00
55036;DHT22;40936;53.008;6.556;2022-11-27T03:37:22;10.30;1.00
55036;DHT22;40936;53.008;6.556;2022-11-27T03:39:48;10.30;99.90
55036;DHT22;40936;53.008;6.556;2022-11-27T03:45:16;11.30;99.90
55036;DHT22;40936;53.008;6.556;2022-11-27T03:56:35;10.30;99.90
55036;DHT22;40936;53.008;6.556;2022-11-27T03:59:24;10.30;99.90
55036;DHT22;40936;53.008;6.556;2022-11-27T04:01:51;10.20;99.90
55036;DHT22;40936;53.008;6.556;2022-11-27T04:04:17;8.30;99.90
55036;DHT22;40936;53.008;6.556;2022-11-27T04:06:43;10.20;99.90
55036;DHT22;40936;53.008;6.556;2022-11-27T04:09:09;10.20;99.90
55036;DHT22;40936;53.008;6.556;2022-11-27T04:11:34;10.20;99.90
55036;DHT22;40936;53.008;6.556;2022-11-27T04:14:00;10.20;99.90
55036;DHT22;40936;53.008;6.556;2022-11-27T04:16:26;10.30;99.90
55036;DHT22;40936;53.008;6.556;2022-11-27T04:18:52;10.20;99.90
55036;DHT22;40936;53.008;6.556;2022-11-27T04:21:17;10.20;99.90
55036;DHT22;40936;53.008;6.556;2022-11-27T04:23:43;10.20;99.90
55036;DHT22;40936;53.008;6.556;2022-11-27T04:26:10;9.80;99.90
55036;DHT22;40936;53.008;6.556;2022-11-27T04:28:35;9.90;99.90
55036;DHT22;40936;53.008;6.556;2022-11-27T04:31:01;10.20;99.90
55036;DHT22;40936;53.008;6.556;2022-11-27T04:33:26;10.20;99.90
55036;DHT22;40936;53.008;6.556;2022-11-27T04:35:52;10.20;99.90
55036;DHT22;40936;53.008;6.556;2022-11-27T04:38:19;10.20;99.90
55036;DHT22;40936;53.008;6.556;2022-11-27T04:40:45;10.70;99.90
55036;DHT22;40936;53.008;6.556;2022-11-27T04:43:10;9.50;99.90
55036;DHT22;40936;53.008;6.556;2022-11-27T04:45:36;10.10;99.90
55036;DHT22;40936;53.008;6.556;2022-11-27T04:48:03;9.80;99.90
55036;DHT22;40936;53.008;6.556;2022-11-27T04:50:29;10.10;99.90
55036;DHT22;40936;53.008;6.556;2022-11-27T04:52:54;10.20;99.90
55036;DHT22;40936;53.008;6.556;2022-11-27T04:55:21;10.20;99.90
55036;DHT22;40936;53.008;6.556;2022-11-27T04:57:47;10.20;99.90
55036;DHT22;40936;53.008;6.556;2022-11-27T05:00:13;10.10;99.90
55036;DHT22;40936;53.008;6.556;2022-11-27T05:02:39;10.10;99.90
55036;DHT22;40936;53.008;6.556;2022-11-27T05:05:05;10.10;99.90
55036;DHT22;40936;53.008;6.556;2022-11-27T05:07:31;10.10;99.90
55036;DHT22;40936;53.008;6.556;2022-11-27T05:09:56;10.40;99.90
55036;DHT22;40936;53.008;6.556;2022-11-27T05:12:22;10.10;99.90
55036;DHT22;40936;53.008;6.556;2022-11-27T05:14:48;10.40;99.90
55036;DHT22;40936;53.008;6.556;2022-11-27T05:17:13;11.50;99.90
55036;DHT22;40936;53.008;6.556;2022-11-27T05:19:39;10.10;99.90
55036;DHT22;40936;53.008;6.556;2022-11-27T05:22:05;10.10;99.90
55036;DHT22;40936;53.008;6.556;2022-11-27T05:24:31;10.40;99.90
55036;DHT22;40936;53.008;6.556;2022-11-27T05:26:56;10.10;99.90
55036;DHT22;40936;53.008;6.556;2022-11-27T05:29:23;10.10;59.90
55036;DHT22;40936;53.008;6.556;2022-11-27T05:31:49;10.20;75.80
55036;DHT22;40936;53.008;6.556;2022-11-27T05:34:15;10.10;79.70
55036;DHT22;40936;53.008;6.556;2022-11-27T05:36:41;10.00;91.60
55036;DHT22;40936;53.008;6.556;2022-11-27T05:39:08;10.00;59.00
55036;DHT22;40936;53.008;6.556;2022-11-27T05:41:35;10.00;88.20
55036;DHT22;40936;53.008;6.556;2022-11-27T05:44:02;10.00;61.80
55036;DHT22;40936;53.008;6.556;2022-11-27T05:46:28;10.00;23.10
55036;DHT22;40936;53.008;6.556;2022-11-27T05:48:54;10.00;43.50
55036;DHT22;40936;53.008;6.556;2022-11-27T05:51:20;10.00;68.10
55036;DHT22;40936;53.008;6.556;2022-11-27T05:53:45;10.00;71.20
55036;DHT22;40936;53.008;6.556;2022-11-27T05:56:14;10.00;64.20
55036;DHT22;40936;53.008;6.556;2022-11-27T05:58:41;9.90;7.80
55036;DHT22;40936;53.008;6.556;2022-11-27T06:01:08;9.90;43.40
55036;DHT22;40936;53.008;6.556;2022-11-27T06:03:34;9.90;20.70
55036;DHT22;40936;53.008;6.556;2022-11-27T06:06:07;10.00;23.50
55036;DHT22;40936;53.008;6.556;2022-11-27T06:08:34;10.00;29.60
55036;DHT22;40936;53.008;6.556;2022-11-27T06:11:08;10.60;17.10
55036;DHT22;40936;53.008;6.556;2022-11-27T06:13:34;10.00;23.50
55036;DHT22;40936;53.008;6.556;2022-11-27T06:16:19;10.50;29.20
55036;DHT22;40936;53.008;6.556;2022-11-27T06:18:48;10.40;17.80
55036;DHT22;40936;53.008;6.556;2022-11-27T06:21:16;11.10;19.90
55036;DHT22;40936;53.008;6.556;2022-11-27T06:23:42;10.40;1.00
55036;DHT22;40936;53.008;6.556;2022-11-27T06:26:17;9.90;1.00
55036;DHT22;40936;53.008;6.556;2022-11-27T06:28:44;11.50;1.00
55036;DHT22;40936;53.008;6.556;2022-11-27T06:31:13;9.90;1.00
55036;DHT22;40936;53.008;6.556;2022-11-27T06:33:40;9.90;1.00
55036;DHT22;40936;53.008;6.556;2022-11-27T06:36:06;10.00;1.00
55036;DHT22;40936;53.008;6.556;2022-11-27T06:38:33;9.90;1.00
55036;DHT22;40936;53.008;6.556;2022-11-27T06:43:29;9.90;1.00
55036;DHT22;40936;53.008;6.556;2022-11-27T06:45:58;10.20;1.00
55036;DHT22;40936;53.008;6.556;2022-11-27T06:48:24;10.20;1.00
55036;DHT22;40936;53.008;6.556;2022-11-27T06:50:50;9.90;1.00
55036;DHT22;40936;53.008;6.556;2022-11-27T06:55:42;9.90;1.00
55036;DHT22;40936;53.008;6.556;2022-11-27T06:58:08;9.90;1.00
55036;DHT22;40936;53.008;6.556;2022-11-27T07:03:00;9.90;1.00
55036;DHT22;40936;53.008;6.556;2022-11-27T07:05:25;10.80;1.00
55036;DHT22;40936;53.008;6.556;2022-11-27T07:07:51;10.40;1.00
55036;DHT22;40936;53.008;6.556;2022-11-27T07:10:17;11.00;1.00
55036;DHT22;40936;53.008;6.556;2022-11-27T07:12:42;9.90;1.00
55036;DHT22;40936;53.008;6.556;2022-11-27T07:15:09;9.90;1.00
55036;DHT22;40936;53.008;6.556;2022-11-27T07:17:35;9.90;1.00
55036;DHT22;40936;53.008;6.556;2022-11-27T07:20:01;9.90;1.00
55036;DHT22;40936;53.008;6.556;2022-11-27T07:22:27;9.90;1.00
55036;DHT22;40936;53.008;6.556;2022-11-27T07:24:53;9.80;1.00
55036;DHT22;40936;53.008;6.556;2022-11-27T07:27:19;9.80;1.00
55036;DHT22;40936;53.008;6.556;2022-11-27T07:29:45;9.90;1.00
55036;DHT22;40936;53.008;6.556;2022-11-27T07:32:11;9.90;1.00
55036;DHT22;40936;53.008;6.556;2022-11-27T07:34:36;9.90;1.00
55036;DHT22;40936;53.008;6.556;2022-11-27T07:37:02;9.90;1.00
55036;DHT22;40936;53.008;6.556;2022-11-27T07:39:27;9.90;1.00
55036;DHT22;40936;53.008;6.556;2022-11-27T07:41:53;9.90;1.00
55036;DHT22;40936;53.008;6.556;2022-11-27T07:44:19;10.50;1.00
55036;DHT22;40936;53.008;6.556;2022-11-27T07:46:44;9.90;1.00
55036;DHT22;40936;53.008;6.556;2022-11-27T07:49:10;9.90;1.00
55036;DHT22;40936;53.008;6.556;2022-11-27T07:51:36;10.00;1.00
55036;DHT22;40936;53.008;6.556;2022-11-27T07:54:03;10.20;1.00
55036;DHT22;40936;53.008;6.556;2022-11-27T07:56:29;9.80;1.00
55036;DHT22;40936;53.008;6.556;2022-11-27T07:58:56;9.90;1.00
55036;DHT22;40936;53.008;6.556;2022-11-27T08:01:22;10.30;1.00
55036;DHT22;40936;53.008;6.556;2022-11-27T08:03:48;10.10;1.00
55036;DHT22;40936;53.008;6.556;2022-11-27T08:06:25;9.90;1.00
55036;DHT22;40936;53.008;6.556;2022-11-27T08:08:52;10.90;1.00
55036;DHT22;40936;53.008;6.556;2022-11-27T08:11:25;10.00;99.90
55036;DHT22;40936;53.008;6.556;2022-11-27T08:14:01;10.00;99.90
55036;DHT22;40936;53.008;6.556;2022-11-27T08:16:27;9.60;99.90
55036;DHT22;40936;53.008;6.556;2022-11-27T08:18:54;10.00;99.90
55036;DHT22;40936;53.008;6.556;2022-11-27T08:21:20;10.00;99.90
55036;DHT22;40936;53.008;6.556;2022-11-27T08:23:46;10.00;99.90
55036;DHT22;40936;53.008;6.556;2022-11-27T08:26:12;10.60;99.90
55036;DHT22;40936;53.008;6.556;2022-11-27T08:28:38;10.10;99.90
55036;DHT22;40936;53.008;6.556;2022-11-27T08:31:05;10.00;99.90
55036;DHT22;40936;53.008;6.556;2022-11-27T08:33:31;10.10;99.90
55036;DHT22;40936;53.008;6.556;2022-11-27T08:35:57;10.00;99.90
55036;DHT22;40936;53.008;6.556;2022-11-27T08:38:23;10.10;99.90
55036;DHT22;40936;53.008;6.556;2022-11-27T08:41:00;10.70;99.90
55036;DHT22;40936;53.008;6.556;2022-11-27T08:43:27;10.60;99.90
55036;DHT22;40936;53.008;6.556;2022-11-27T08:45:53;10.00;99.90
55036;DHT22;40936;53.008;6.556;2022-11-27T08:48:20;10.10;99.90
55036;DHT22;40936;53.008;6.556;2022-11-27T08:50:46;10.20;99.90
55036;DHT22;40936;53.008;6.556;2022-11-27T08:53:13;10.00;99.90
55036;DHT22;40936;53.008;6.556;2022-11-27T08:55:39;10.30;99.90
55036;DHT22;40936;53.008;6.556;2022-11-27T08:58:05;10.30;99.90
55036;DHT22;40936;53.008;6.556;2022-11-27T09:00:31;10.00;99.90
55036;DHT22;40936;53.008;6.556;2022-11-27T09:02:58;10.00;99.90
55036;DHT22;40936;53.008;6.556;2022-11-27T09:05:25;10.50;99.90
55036;DHT22;40936;53.008;6.556;2022-11-27T09:07:51;10.60;99.90
55036;DHT22;40936;53.008;6.556;2022-11-27T09:10:17;10.30;99.90
55036;DHT22;40936;53.008;6.556;2022-11-27T09:12:43;9.80;99.90
55036;DHT22;40936;53.008;6.556;2022-11-27T09:15:10;10.00;99.90
55036;DHT22;40936;53.008;6.556;2022-11-27T09:17:36;10.10;99.90
55036;DHT22;40936;53.008;6.556;2022-11-27T09:20:04;10.00;99.90
55036;DHT22;40936;53.008;6.556;2022-11-27T09:22:30;10.10;99.90
55036;DHT22;40936;53.008;6.556;2022-11-27T09:24:56;10.10;99.90
55036;DHT22;40936;53.008;6.556;2022-11-27T09:27:21;10.10;99.90
55036;DHT22;40936;53.008;6.556;2022-11-27T09:29:47;10.10;99.90
55036;DHT22;40936;53.008;6.556;2022-11-27T09:32:14;10.30;99.90
55036;DHT22;40936;53.008;6.556;2022-11-27T09:34:40;10.10;99.90
55036;DHT22;40936;53.008;6.556;2022-11-27T09:37:06;10.10;99.90
55036;DHT22;40936;53.008;6.556;2022-11-27T09:39:33;10.00;99.90
55036;DHT22;40936;53.008;6.556;2022-11-27T09:42:02;10.00;99.90
55036;DHT22;40936;53.008;6.556;2022-11-27T09:46:59;9.90;1.00
55036;DHT22;40936;53.008;6.556;2022-11-27T09:49:44;9.90;1.00
55036;DHT22;40936;53.008;6.556;2022-11-27T09:54:43;10.10;73.30
55036;DHT22;40936;53.008;6.556;2022-11-27T09:57:15;9.70;99.90
55036;DHT22;40936;53.008;6.556;2022-11-27T09:59:49;9.60;99.90
55036;DHT22;40936;53.008;6.556;2022-11-27T10:02:20;10.80;99.90
55036;DHT22;40936;53.008;6.556;2022-11-27T10:04:48;11.10;99.90
55036;DHT22;40936;53.008;6.556;2022-11-27T10:07:20;9.70;99.90
55036;DHT22;40936;53.008;6.556;2022-11-27T10:10:02;9.60;1.00
55036;DHT22;40936;53.008;6.556;2022-11-27T10:15:18;9.70;1.00
55036;DHT22;40936;53.008;6.556;2022-11-27T10:20:29;9.80;7.60
55036;DHT22;40936;53.008;6.556;2022-11-27T10:25:29;9.80;92.70
55036;DHT22;40936;53.008;6.556;2022-11-27T10:30:50;10.00;99.90
55036;DHT22;40936;53.008;6.556;2022-11-27T10:33:23;9.80;99.90
55036;DHT22;40936;53.008;6.556;2022-11-27T10:35:50;9.70;99.90
55036;DHT22;40936;53.008;6.556;2022-11-27T10:38:21;9.70;99.90
55036;DHT22;40936;53.008;6.556;2022-11-27T10:43:34;9.80;99.90
55036;DHT22;40936;53.008;6.556;2022-11-27T10:48:32;9.80;99.90
55036;DHT22;40936;53.008;6.556;2022-11-27T10:50:58;11.00;1.00
55036;DHT22;40936;53.008;6.556;2022-11-27T10:53:35;10.00;1.00
55036;DHT22;40936;53.008;6.556;2022-11-27T10:56:23;9.80;99.90
55036;DHT22;40936;53.008;6.556;2022-11-27T10:58:57;11.20;99.90
55036;DHT22;40936;53.008;6.556;2022-11-27T11:01:26;10.40;99.90
55036;DHT22;40936;53.008;6.556;2022-11-27T11:04:07;9.90;99.90
55036;DHT22;40936;53.008;6.556;2022-11-27T11:06:41;9.90;99.90
55036;DHT22;40936;53.008;6.556;2022-11-27T11:09:33;9.80;99.90
55036;DHT22;40936;53.008;6.556;2022-11-27T11:12:14;10.20;99.90
55036;DHT22;40936;53.008;6.556;2022-11-27T11:17:26;9.20;99.90
55036;DHT22;40936;53.008;6.556;2022-11-27T11:19:52;9.50;99.90
55036;DHT22;40936;53.008;6.556;2022-11-27T11:22:18;10.00;99.90
55036;DHT22;40936;53.008;6.556;2022-11-27T11:24:51;10.90;99.90
55036;DHT22;40936;53.008;6.556;2022-11-27T11:27:29;10.40;99.90
55036;DHT22;40936;53.008;6.556;2022-11-27T11:30:02;10.30;99.90
55036;DHT22;40936;53.008;6.556;2022-11-27T11:32:36;11.10;99.90
55036;DHT22;40936;53.008;6.556;2022-11-27T11:35:07;9.90;99.90
55036;DHT22;40936;53.008;6.556;2022-11-27T11:37:38;10.00;99.90
55036;DHT22;40936;53.008;6.556;2022-11-27T11:42:53;10.00;99.90
55036;DHT22;40936;53.008;6.556;2022-11-27T11:45:20;9.90;99.90
55036;DHT22;40936;53.008;6.556;2022-11-27T11:47:50;10.00;99.90
55036;DHT22;40936;53.008;6.556;2022-11-27T11:50:49;10.00;99.90
55036;DHT22;40936;53.008;6.556;2022-11-27T11:53:34;9.90;99.90
55036;DHT22;40936;53.008;6.556;2022-11-27T11:56:28;10.20;99.90
55036;DHT22;40936;53.008;6.556;2022-11-27T11:58:55;10.90;99.90
55036;DHT22;40936;53.008;6.556;2022-11-27T12:06:54;10.10;99.90
55036;DHT22;40936;53.008;6.556;2022-11-27T12:12:03;10.20;99.90
55036;DHT22;40936;53.008;6.556;2022-11-27T12:20:05;10.20;99.90
55036;DHT22;40936;53.008;6.556;2022-11-27T12:22:40;10.20;99.90
55036;DHT22;40936;53.008;6.556;2022-11-27T12:34:46;10.20;99.90
55036;DHT22;40936;53.008;6.556;2022-11-27T12:45:24;10.20;99.90
55036;DHT22;40936;53.008;6.556;2022-11-27T12:48:00;10.20;1.00
55036;DHT22;40936;53.008;6.556;2022-11-27T12:53:02;10.80;1.00
55036;DHT22;40936;53.008;6.556;2022-11-27T12:55:33;10.50;1.00
55036;DHT22;40936;53.008;6.556;2022-11-27T12:58:09;9.90;1.00
55036;DHT22;40936;53.008;6.556;2022-11-27T13:00:40;10.20;1.00
55036;DHT22;40936;53.008;6.556;2022-11-27T13:03:30;10.40;1.00
55036;DHT22;40936;53.008;6.556;2022-11-27T13:06:08;10.10;1.00
55036;DHT22;40936;53.008;6.556;2022-11-27T13:09:06;10.20;1.00
55036;DHT22;40936;53.008;6.556;2022-11-27T13:11:38;10.20;1.00
55036;DHT22;40936;53.008;6.556;2022-11-27T13:16:42;10.10;1.00
55036;DHT22;40936;53.008;6.556;2022-11-27T13:19:27;10.10;1.00
55036;DHT22;40936;53.008;6.556;2022-11-27T13:21:55;10.70;1.00
55036;DHT22;40936;53.008;6.556;2022-11-27T13:24:24;10.10;1.00
55036;DHT22;40936;53.008;6.556;2022-11-27T13:27:11;10.20;1.00
55036;DHT22;40936;53.008;6.556;2022-11-27T13:30:04;10.10;99.90
55036;DHT22;40936;53.008;6.556;2022-11-27T13:32:37;10.00;99.90
55036;DHT22;40936;53.008;6.556;2022-11-27T13:35:16;10.10;99.90
55036;DHT22;40936;53.008;6.556;2022-11-27T13:37:43;10.10;99.90
55036;DHT22;40936;53.008;6.556;2022-11-27T13:40:31;10.00;99.90
55036;DHT22;40936;53.008;6.556;2022-11-27T13:43:05;10.10;99.90
55036;DHT22;40936;53.008;6.556;2022-11-27T13:45:36;10.20;99.90
55036;DHT22;40936;53.008;6.556;2022-11-27T13:48:49;10.20;1.00
55036;DHT22;40936;53.008;6.556;2022-11-27T13:51:09;10.00;99.90
55036;DHT22;40936;53.008;6.556;2022-11-27T13:53:40;10.10;99.90
55036;DHT22;40936;53.008;6.556;2022-11-27T13:56:07;10.40;1.00
55036;DHT22;40936;53.008;6.556;2022-11-27T13:58:35;10.10;1.00
55036;DHT22;40936;53.008;6.556;2022-11-27T14:01:17;10.60;1.00
55036;DHT22;40936;53.008;6.556;2022-11-27T14:03:43;10.10;1.00
55036;DHT22;40936;53.008;6.556;2022-11-27T14:06:27;10.40;1.00
55036;DHT22;40936;53.008;6.556;2022-11-27T14:08:56;10.00;1.00
55036;DHT22;40936;53.008;6.556;2022-11-27T14:11:48;9.80;1.00
55036;DHT22;40936;53.008;6.556;2022-11-27T14:14:16;10.20;1.00
55036;DHT22;40936;53.008;6.556;2022-11-27T14:16:51;10.00;11.00
55036;DHT22;40936;53.008;6.556;2022-11-27T14:19:31;10.10;99.90
55036;DHT22;40936;53.008;6.556;2022-11-27T14:21:59;10.00;99.90
55036;DHT22;40936;53.008;6.556;2022-11-27T14:27:12;9.90;99.90
55036;DHT22;40936;53.008;6.556;2022-11-27T14:29:40;9.90;99.90
55036;DHT22;40936;53.008;6.556;2022-11-27T14:32:11;10.10;1.00
55036;DHT22;40936;53.008;6.556;2022-11-27T14:34:38;9.90;99.90
55036;DHT22;40936;53.008;6.556;2022-11-27T14:37:03;10.00;1.00
55036;DHT22;40936;53.008;6.556;2022-11-27T14:39:36;10.40;1.00
55036;DHT22;40936;53.008;6.556;2022-11-27T14:42:06;9.90;51.00
55036;DHT22;40936;53.008;6.556;2022-11-27T14:44:33;9.90;60.30
55036;DHT22;40936;53.008;6.556;2022-11-27T14:47:04;10.00;6.00
55036;DHT22;40936;53.008;6.556;2022-11-27T14:49:31;9.80;1.00
55036;DHT22;40936;53.008;6.556;2022-11-27T14:52:06;10.20;1.00
55036;DHT22;40936;53.008;6.556;2022-11-27T14:54:38;10.30;1.00
55036;DHT22;40936;53.008;6.556;2022-11-27T14:57:04;9.90;1.00
55036;DHT22;40936;53.008;6.556;2022-11-27T14:59:30;10.00;1.00
55036;DHT22;40936;53.008;6.556;2022-11-27T15:07:00;10.00;99.90
55036;DHT22;40936;53.008;6.556;2022-11-27T15:09:28;9.90;99.90
55036;DHT22;40936;53.008;6.556;2022-11-27T15:12:05;9.80;99.90
55036;DHT22;40936;53.008;6.556;2022-11-27T15:14:34;9.90;99.90
55036;DHT22;40936;53.008;6.556;2022-11-27T15:17:00;10.90;99.90
55036;DHT22;40936;53.008;6.556;2022-11-27T15:19:27;10.00;99.90
55036;DHT22;40936;53.008;6.556;2022-11-27T15:21:54;10.20;99.90
55036;DHT22;40936;53.008;6.556;2022-11-27T15:24:31;9.80;99.90
55036;DHT22;40936;53.008;6.556;2022-11-27T15:30:22;10.30;99.90
55036;DHT22;40936;53.008;6.556;2022-11-27T15:32:47;9.90;99.90
55036;DHT22;40936;53.008;6.556;2022-11-27T15:35:43;8.90;99.90
55036;DHT22;40936;53.008;6.556;2022-11-27T15:38:09;10.00;99.90
55036;DHT22;40936;53.008;6.556;2022-11-27T15:40:37;10.40;46.00
55036;DHT22;40936;53.008;6.556;2022-11-27T15:43:14;9.80;91.30
55036;DHT22;40936;53.008;6.556;2022-11-27T15:45:41;9.90;21.60
55036;DHT22;40936;53.008;6.556;2022-11-27T15:48:14;10.00;1.00
55036;DHT22;40936;53.008;6.556;2022-11-27T15:50:40;9.90;1.00
55036;DHT22;40936;53.008;6.556;2022-11-27T15:53:06;9.90;1.00
55036;DHT22;40936;53.008;6.556;2022-11-27T15:55:32;9.90;1.00
55036;DHT22;40936;53.008;6.556;2022-11-27T15:57:58;10.00;1.00
55036;DHT22;40936;53.008;6.556;2022-11-27T16:00:24;10.90;1.00
55036;DHT22;40936;53.008;6.556;2022-11-27T16:02:51;10.00;1.00
55036;DHT22;40936;53.008;6.556;2022-11-27T16:05:17;11.60;1.00
55036;DHT22;40936;53.008;6.556;2022-11-27T16:07:42;9.90;1.00
55036;DHT22;40936;53.008;6.556;2022-11-27T16:10:09;9.90;1.00
55036;DHT22;40936;53.008;6.556;2022-11-27T16:12:35;10.10;1.00
55036;DHT22;40936;53.008;6.556;2022-11-27T16:15:01;10.10;1.00
55036;DHT22;40936;53.008;6.556;2022-11-27T16:17:27;10.10;1.00
55036;DHT22;40936;53.008;6.556;2022-11-27T16:19:52;10.50;1.00
55036;DHT22;40936;53.008;6.556;2022-11-27T16:22:18;10.30;99.90
55036;DHT22;40936;53.008;6.556;2022-11-27T16:24:44;10.00;1.00
55036;DHT22;40936;53.008;6.556;2022-11-27T16:27:09;10.00;1.00
55036;DHT22;40936;53.008;6.556;2022-11-27T16:29:35;10.50;99.90
55036;DHT22;40936;53.008;6.556;2022-11-27T16:32:01;10.00;1.00
55036;DHT22;40936;53.008;6.556;2022-11-27T16:34:26;10.10;1.00
55036;DHT22;40936;53.008;6.556;2022-11-27T16:36:52;10.30;1.00
55036;DHT22;40936;53.008;6.556;2022-11-27T16:39:18;10.80;1.00
55036;DHT22;40936;53.008;6.556;2022-11-27T16:41:44;9.90;1.00
55036;DHT22;40936;53.008;6.556;2022-11-27T16:44:11;10.80;1.00
55036;DHT22;40936;53.008;6.556;2022-11-27T16:46:37;9.70;1.00
55036;DHT22;40936;53.008;6.556;2022-11-27T16:49:03;10.20;1.00
55036;DHT22;40936;53.008;6.556;2022-11-27T16:51:32;10.10;1.00
55036;DHT22;40936;53.008;6.556;2022-11-27T16:54:00;10.10;1.00
55036;DHT22;40936;53.008;6.556;2022-11-27T16:56:27;11.20;2.70
55036;DHT22;40936;53.008;6.556;2022-11-27T16:58:53;9.90;53.20
55036;DHT22;40936;53.008;6.556;2022-11-27T17:01:22;8.60;1.00
55036;DHT22;40936;53.008;6.556;2022-11-27T17:03:48;9.90;1.00
55036;DHT22;40936;53.008;6.556;2022-11-27T17:06:24;10.00;1.00
55036;DHT22;40936;53.008;6.556;2022-11-27T17:08:55;10.70;1.00
55036;DHT22;40936;53.008;6.556;2022-11-27T17:11:24;10.10;1.00
55036;DHT22;40936;53.008;6.556;2022-11-27T17:13:51;10.10;1.00
55036;DHT22;40936;53.008;6.556;2022-11-27T17:16:17;10.80;1.00
55036;DHT22;40936;53.008;6.556;2022-11-27T17:18:44;10.50;99.90
55036;DHT22;40936;53.008;6.556;2022-11-27T17:21:21;10.00;99.90
55036;DHT22;40936;53.008;6.556;2022-11-27T17:23:48;9.90;99.90
55036;DHT22;40936;53.008;6.556;2022-11-27T17:26:16;10.10;99.90
55036;DHT22;40936;53.008;6.556;2022-11-27T17:28:43;10.50;99.90
55036;DHT22;40936;53.008;6.556;2022-11-27T17:31:15;7.70;1.00
55036;DHT22;40936;53.008;6.556;2022-11-27T17:33:41;10.00;99.90
55036;DHT22;40936;53.008;6.556;2022-11-27T17:36:07;10.10;1.00
55036;DHT22;40936;53.008;6.556;2022-11-27T17:38:33;10.00;99.90
55036;DHT22;40936;53.008;6.556;2022-11-27T17:41:06;10.70;99.90
55036;DHT22;40936;53.008;6.556;2022-11-27T17:43:33;10.00;99.90
55036;DHT22;40936;53.008;6.556;2022-11-27T17:45:59;10.10;99.90